L45 weather

Bakersfield Municipal Airport
Bakersfield, California, United States

Public forecast

Using degrees Fahrenheit for public forecast. Weather courtesy of forecast.io.

METAR (pilot weather report)

Closest report is Meadows Field, 7.2 nm (13.3 km) NNW. Retrieved 2017/10/23 02:54 UTC (8 minutes ago):

KBFL 230254Z 00000KT 10SM CLR 19/07 A3027 RMK AO2 SLP248 T01890067 53008

TAF (pilot weather forecast)

Forecast is more than 12 hours old.

Closest forecast is Meadows Field, 7.2 nm (13.3 km) NNW. Retrieved 2017/10/22 00:22 UTC (1 day ago):

TAF KBFL 222320Z 2300/2324 VRB04KT P6SM SKC